Terminal Aerodrome Forecast
Issued by NWS Albany, NY

Home | Current Version | Previous Version | Text Only | Print | Product List | Glossary On
Versions: 1 2 3 4 5 6 7 8 9 10 11 12 13 14 15 16 17 18
000
FTUS41 KALY 221100
TAFGFL
TAF
KGFL 221131Z 2212/2312 VRB03KT P6SM SCT025 OVC035
      TEMPO 2212/2215 BKN025 OVC035
     FM230300 VRB02KT P6SM OVC025
     FM230600 VRB02KT 2SM -SNPL BR OVC015
     FM230900 VRB02KT 2SM -FZRA BR OVC008=

USA.gov is the U.S. government's official web portal to all federal, state and local government web resources and services.